createdAt,value
2017-09-25T00:02:29.004Z,96.72
2017-09-25T00:05:03.860Z,96.84
2017-09-25T00:07:39.215Z,97.00
2017-09-25T00:10:16.405Z,96.80
2017-09-25T00:12:55.313Z,96.76
2017-09-25T00:15:29.953Z,97.09
2017-09-25T00:18:04.932Z,97.34
2017-09-25T00:20:40.348Z,97.14
2017-09-25T00:23:17.950Z,96.83
2017-09-25T00:25:54.461Z,96.44
2017-09-25T00:28:30.247Z,96.30
2017-09-25T00:31:05.350Z,96.66
2017-09-25T00:33:44.650Z,96.66
2017-09-25T00:36:21.525Z,97.06
2017-09-25T00:38:57.064Z,97.41
2017-09-25T00:41:31.716Z,97.41
2017-09-25T00:44:06.243Z,97.41
2017-09-25T00:46:42.628Z,98.08
2017-09-25T00:49:18.116Z,98.21
2017-09-25T00:51:52.399Z,98.78
2017-09-25T00:54:27.299Z,98.82
2017-09-25T00:57:02.143Z,98.67
2017-09-25T00:59:36.272Z,98.72
2017-09-25T01:02:22.344Z,98.65
2017-09-25T01:05:04.758Z,98.39
2017-09-25T01:07:42.914Z,98.20
2017-09-25T01:10:18.400Z,98.04
2017-09-25T01:12:54.257Z,97.96
2017-09-25T01:15:29.086Z,97.98
2017-09-25T01:18:08.152Z,98.10
2017-09-25T01:20:44.316Z,98.07
2017-09-25T01:23:23.949Z,97.92
2017-09-25T01:25:59.668Z,97.68
2017-09-25T01:28:34.391Z,97.49
2017-09-25T01:31:09.416Z,97.30
2017-09-25T01:33:43.875Z,97.17
2017-09-25T01:36:19.675Z,97.19
2017-09-25T01:38:54.483Z,97.26
2017-09-25T01:41:29.314Z,97.32
2017-09-25T01:44:04.263Z,97.18
2017-09-25T01:46:39.307Z,97.06
2017-09-25T01:49:13.923Z,96.93
2017-09-25T01:51:48.631Z,96.89
2017-09-25T01:54:23.246Z,97.05
2017-09-25T01:56:57.964Z,96.97
2017-09-25T01:59:33.308Z,96.94
2017-09-25T02:02:08.668Z,97.10
2017-09-25T02:04:43.419Z,97.09
2017-09-25T02:07:18.228Z,96.97
2017-09-25T02:09:52.963Z,96.94
2017-09-25T02:12:27.412Z,97.08
2017-09-25T02:15:02.333Z,97.36
2017-09-25T02:17:37.091Z,97.41
2017-09-25T02:20:11.663Z,97.45
2017-09-25T02:22:46.396Z,97.79
2017-09-25T02:25:21.206Z,97.93
2017-09-25T02:27:57.079Z,98.22
2017-09-25T02:30:32.004Z,98.42
2017-09-25T02:33:06.963Z,98.54
2017-09-25T02:35:41.896Z,98.44
2017-09-25T02:38:17.125Z,98.31
2017-09-25T02:40:51.605Z,98.50
2017-09-25T02:43:26.789Z,98.62
2017-09-25T02:46:01.445Z,98.48
2017-09-25T02:48:36.340Z,98.23
2017-09-25T02:51:10.684Z,98.27
2017-09-25T02:53:45.816Z,98.50
2017-09-25T02:56:20.544Z,98.49
2017-09-25T02:58:55.096Z,98.49
2017-09-25T03:01:29.906Z,98.56
2017-09-25T03:04:04.551Z,99.12
2017-09-25T03:06:39.371Z,99.36
2017-09-25T03:09:13.966Z,99.65
2017-09-25T03:11:48.974Z,99.42
2017-09-25T03:14:23.820Z,99.67
2017-09-25T03:16:58.468Z,100.00
2017-09-25T03:19:33.476Z,100.00
2017-09-25T03:22:08.248Z,100.00
2017-09-25T03:24:42.878Z,100.00
2017-09-25T03:27:17.813Z,100.00
2017-09-25T03:29:52.806Z,99.95
2017-09-25T03:32:27.702Z,99.84
2017-09-25T03:35:02.511Z,99.69
2017-09-25T03:37:37.392Z,99.77
2017-09-25T03:40:12.228Z,100.00
2017-09-25T03:42:46.663Z,100.00
2017-09-25T03:45:21.660Z,100.00
2017-09-25T03:47:56.531Z,99.72
2017-09-25T03:50:31.554Z,99.78
2017-09-25T03:53:06.391Z,100.00
2017-09-25T03:55:41.199Z,100.00
2017-09-25T03:58:15.973Z,100.00
2017-09-25T04:00:50.965Z,100.00
2017-09-25T04:03:25.556Z,100.00
2017-09-25T04:06:00.221Z,100.00
2017-09-25T04:08:35.268Z,100.00
2017-09-25T04:11:09.934Z,100.00
2017-09-25T04:13:44.672Z,100.00
2017-09-25T04:16:19.465Z,100.00
2017-09-25T04:18:54.104Z,100.00
2017-09-25T04:21:28.886Z,100.00
2017-09-25T04:24:03.607Z,100.00
2017-09-25T04:26:38.264Z,100.00
2017-09-25T04:29:13.145Z,100.00
2017-09-25T04:31:47.448Z,99.64
2017-09-25T04:34:22.358Z,99.61
2017-09-25T04:36:57.093Z,99.91
2017-09-25T04:39:32.840Z,100.00
2017-09-25T04:42:07.536Z,99.91
2017-09-25T04:44:42.355Z,99.64
2017-09-25T04:47:17.192Z,99.21
2017-09-25T04:49:52.828Z,99.07
2017-09-25T04:52:28.048Z,98.89
2017-09-25T04:55:02.661Z,98.78
2017-09-25T04:57:37.378Z,98.58
2017-09-25T05:00:12.247Z,98.38
2017-09-25T05:02:47.118Z,98.19
2017-09-25T05:05:21.837Z,97.93
2017-09-25T05:07:56.505Z,97.86
2017-09-25T05:10:31.252Z,98.09
2017-09-25T05:13:05.944Z,98.09
2017-09-25T05:15:40.738Z,98.37
2017-09-25T05:18:15.803Z,98.40
2017-09-25T05:20:50.479Z,98.59
2017-09-25T05:23:25.272Z,98.59
2017-09-25T05:26:00.158Z,98.61
2017-09-25T05:28:35.008Z,98.64
2017-09-25T05:31:09.667Z,98.53
2017-09-25T05:33:44.652Z,98.61
2017-09-25T05:36:19.023Z,98.60
2017-09-25T05:38:54.026Z,98.20
2017-09-25T05:41:28.755Z,98.16
2017-09-25T05:44:03.516Z,98.15
2017-09-25T05:46:38.336Z,98.11
2017-09-25T05:49:13.095Z,98.24
2017-09-25T05:51:47.795Z,98.20
2017-09-25T05:54:22.618Z,98.18
2017-09-25T05:56:57.271Z,98.06
2017-09-25T05:59:32.912Z,98.11
2017-09-25T06:02:07.616Z,97.97
2017-09-25T06:04:42.272Z,97.67
2017-09-25T06:07:17.116Z,97.74
2017-09-25T06:09:52.586Z,97.58
2017-09-25T06:12:27.163Z,97.58
2017-09-25T06:15:01.788Z,97.50
2017-09-25T06:17:36.841Z,97.45
2017-09-25T06:20:11.412Z,97.39
2017-09-25T06:22:46.212Z,97.64
2017-09-25T06:25:21.019Z,97.59
2017-09-25T06:27:55.731Z,97.67
2017-09-25T06:30:30.553Z,97.77
2017-09-25T06:33:05.251Z,98.07
2017-09-25T06:35:39.946Z,97.99
2017-09-25T06:38:15.513Z,97.85
2017-09-25T06:40:50.310Z,97.71
2017-09-25T06:43:24.968Z,97.58
2017-09-25T06:45:59.692Z,97.71
2017-09-25T06:48:34.690Z,97.73
2017-09-25T06:51:09.431Z,97.75
2017-09-25T06:53:44.152Z,97.71
2017-09-25T06:56:18.900Z,97.64
2017-09-25T06:58:53.757Z,97.66
2017-09-25T07:01:28.360Z,97.73
2017-09-25T07:04:02.831Z,97.82
2017-09-25T07:06:37.546Z,97.82
2017-09-25T07:09:12.715Z,97.58
2017-09-25T07:11:48.680Z,97.63
2017-09-25T07:14:23.324Z,97.70
2017-09-25T07:16:57.938Z,97.81
2017-09-25T07:19:32.680Z,97.91
2017-09-25T07:22:08.511Z,97.68
2017-09-25T07:24:44.159Z,97.62
2017-09-25T07:27:18.913Z,97.61
2017-09-25T07:29:53.744Z,97.48
2017-09-25T07:32:28.481Z,97.52
2017-09-25T07:35:03.404Z,97.67
2017-09-25T07:37:38.243Z,97.62
2017-09-25T07:40:13.011Z,97.70
2017-09-25T07:42:47.655Z,97.84
2017-09-25T07:45:22.213Z,97.70
2017-09-25T07:47:57.143Z,97.72
2017-09-25T07:50:32.099Z,97.75
2017-09-25T07:53:06.819Z,97.99
2017-09-25T07:55:41.622Z,98.00
2017-09-25T07:58:16.251Z,97.98
2017-09-25T08:00:51.012Z,97.85
2017-09-25T08:03:25.730Z,97.70
2017-09-25T08:06:00.458Z,97.75
2017-09-25T08:08:35.192Z,97.79
2017-09-25T08:11:10.351Z,97.65
2017-09-25T08:13:45.105Z,97.50
2017-09-25T08:16:19.850Z,97.68
2017-09-25T08:18:54.846Z,97.85
2017-09-25T08:21:29.684Z,97.86
2017-09-25T08:24:04.740Z,97.46
2017-09-25T08:26:39.797Z,97.08
2017-09-25T08:29:14.767Z,96.91
2017-09-25T08:31:49.683Z,96.68
2017-09-25T08:34:24.772Z,96.48
2017-09-25T08:36:59.244Z,96.22
2017-09-25T08:39:33.951Z,96.07
2017-09-25T08:42:08.776Z,96.16
2017-09-25T08:44:43.631Z,95.92
2017-09-25T08:47:18.384Z,95.83
2017-09-25T08:49:53.216Z,95.71
2017-09-25T08:52:28.215Z,95.33
2017-09-25T08:55:02.972Z,95.36
2017-09-25T08:57:37.796Z,95.61
2017-09-25T09:00:12.432Z,95.44
2017-09-25T09:02:47.171Z,95.49
2017-09-25T09:05:21.913Z,95.64
2017-09-25T09:07:56.633Z,95.63
2017-09-25T09:10:31.389Z,95.55
2017-09-25T09:13:06.136Z,95.55
2017-09-25T09:15:40.724Z,95.31
2017-09-25T09:18:16.560Z,95.52
2017-09-25T09:20:51.184Z,95.78
2017-09-25T09:23:25.976Z,95.96
2017-09-25T09:26:00.732Z,96.25
2017-09-25T09:28:35.388Z,96.06
2017-09-25T09:31:10.186Z,95.93
2017-09-25T09:33:44.952Z,95.77
2017-09-25T09:36:19.627Z,95.74
2017-09-25T09:38:54.352Z,95.68
2017-09-25T09:41:29.202Z,95.53
2017-09-25T09:44:04.026Z,95.49
2017-09-25T09:46:38.974Z,95.36
2017-09-25T09:49:13.814Z,95.43
2017-09-25T09:51:48.501Z,94.83
2017-09-25T09:54:23.471Z,94.61
2017-09-25T09:56:58.216Z,94.77
2017-09-25T09:59:32.918Z,94.58
2017-09-25T10:02:07.655Z,94.92
2017-09-25T10:04:42.688Z,94.61
2017-09-25T10:07:17.472Z,94.02
2017-09-25T10:09:52.115Z,93.66
2017-09-25T10:12:26.754Z,93.49
2017-09-25T10:15:01.496Z,93.65
2017-09-25T10:17:36.236Z,93.57
2017-09-25T10:20:10.955Z,94.05
2017-09-25T10:22:45.668Z,93.74
2017-09-25T10:25:20.440Z,93.39
2017-09-25T10:27:55.318Z,93.51
2017-09-25T10:30:29.628Z,93.05
2017-09-25T10:33:04.945Z,92.62
2017-09-25T10:35:39.356Z,91.77
2017-09-25T10:38:14.393Z,91.16
2017-09-25T10:40:49.112Z,90.88
2017-09-25T10:43:24.044Z,89.44
2017-09-25T10:45:58.834Z,89.39
2017-09-25T10:48:33.687Z,88.53
2017-09-25T10:51:08.432Z,88.41
2017-09-25T10:53:43.164Z,88.49
2017-09-25T10:56:18.318Z,88.22
2017-09-25T10:58:53.037Z,88.09
2017-09-25T11:01:27.755Z,88.32
2017-09-25T11:04:02.600Z,88.22
2017-09-25T11:06:37.415Z,88.13
2017-09-25T11:09:13.128Z,88.14
2017-09-25T11:11:48.057Z,87.11
2017-09-25T11:14:22.830Z,87.25
2017-09-25T11:16:57.763Z,85.99
2017-09-25T11:19:32.673Z,85.86
2017-09-25T11:22:07.420Z,86.24
2017-09-25T11:24:42.944Z,86.62
2017-09-25T11:27:17.781Z,85.65
2017-09-25T11:29:52.812Z,86.53
2017-09-25T11:32:27.584Z,86.51
2017-09-25T11:35:02.744Z,86.98
2017-09-25T11:37:37.467Z,86.74
2017-09-25T11:40:12.288Z,86.42
2017-09-25T11:42:47.218Z,86.82
2017-09-25T11:45:21.810Z,86.68
2017-09-25T11:47:56.503Z,86.45
2017-09-25T11:50:31.351Z,86.53
2017-09-25T11:53:06.250Z,86.51
2017-09-25T11:55:40.995Z,86.31
2017-09-25T11:58:15.821Z,86.58
2017-09-25T12:00:50.542Z,86.57
2017-09-25T12:03:25.280Z,86.50
2017-09-25T12:06:00.606Z,86.42
2017-09-25T12:08:34.978Z,86.55
2017-09-25T12:11:09.840Z,86.81
2017-09-25T12:13:44.940Z,87.04
2017-09-25T12:16:19.943Z,87.03
2017-09-25T12:18:54.904Z,87.31
2017-09-25T12:21:29.612Z,86.98
2017-09-25T12:24:04.372Z,86.65
2017-09-25T12:26:39.244Z,86.64
2017-09-25T12:29:14.165Z,86.61
2017-09-25T12:31:49.075Z,85.71
2017-09-25T12:34:24.064Z,86.21
2017-09-25T12:36:58.812Z,86.27
2017-09-25T12:39:33.568Z,86.32
2017-09-25T12:42:08.387Z,85.98
2017-09-25T12:44:43.075Z,85.66
2017-09-25T12:47:17.939Z,85.73
2017-09-25T12:49:53.758Z,85.89
2017-09-25T12:52:28.580Z,85.86
2017-09-25T12:55:03.512Z,85.55
2017-09-25T12:57:38.316Z,85.22
2017-09-25T13:00:13.972Z,84.65
2017-09-25T13:02:48.735Z,83.94
2017-09-25T13:05:23.804Z,83.18
2017-09-25T13:07:58.576Z,82.85
2017-09-25T13:10:33.531Z,83.56
2017-09-25T13:13:08.484Z,83.73
2017-09-25T13:15:43.516Z,82.97
2017-09-25T13:18:18.320Z,80.92
2017-09-25T13:20:53.109Z,80.33
2017-09-25T13:23:27.847Z,79.93
2017-09-25T13:26:02.828Z,79.16
2017-09-25T13:28:37.327Z,78.80
2017-09-25T13:31:12.239Z,80.23
2017-09-25T13:33:47.988Z,80.50
2017-09-25T13:36:22.324Z,79.61
2017-09-25T13:38:57.459Z,79.67
2017-09-25T13:41:32.304Z,80.83
2017-09-25T13:44:08.700Z,80.49
2017-09-25T13:46:43.136Z,79.60
2017-09-25T13:49:18.426Z,79.13
2017-09-25T13:51:54.048Z,77.66
2017-09-25T13:54:28.911Z,77.13
2017-09-25T13:57:03.782Z,77.70
2017-09-25T14:04:59.904Z,75.56
2017-09-25T14:07:34.894Z,75.64
2017-09-25T14:10:10.146Z,76.17
2017-09-25T14:12:44.876Z,76.66
2017-09-25T14:15:19.740Z,77.33
2017-09-25T14:17:54.547Z,77.62
2017-09-25T14:20:29.484Z,77.53
2017-09-25T14:23:04.370Z,77.45
2017-09-25T14:25:38.803Z,77.74
2017-09-25T14:28:13.912Z,77.75
2017-09-25T14:30:48.617Z,78.83
2017-09-25T14:33:23.461Z,79.34
2017-09-25T14:35:58.163Z,80.09
2017-09-25T14:38:33.780Z,81.03
2017-09-25T14:41:08.472Z,81.29
2017-09-25T14:43:43.132Z,81.53
2017-09-25T14:46:18.379Z,82.28
2017-09-25T14:48:53.292Z,82.98
2017-09-25T14:51:28.147Z,84.15
2017-09-25T14:54:02.911Z,84.57
2017-09-25T14:56:39.311Z,84.88
2017-09-25T14:59:14.445Z,85.01
2017-09-25T15:01:49.803Z,85.06
2017-09-25T15:04:24.741Z,85.30
2017-09-25T15:06:59.311Z,85.28
2017-09-25T15:09:33.848Z,85.47
2017-09-25T15:12:08.642Z,86.05
2017-09-25T15:14:43.392Z,86.17
2017-09-25T15:17:18.551Z,86.50
2017-09-25T15:19:53.214Z,87.25
2017-09-25T15:22:28.072Z,87.40
2017-09-25T15:25:02.864Z,87.41
2017-09-25T15:27:37.397Z,87.13
2017-09-25T15:33:22.757Z,85.70
2017-09-25T15:35:57.196Z,83.50
2017-09-25T15:38:31.930Z,83.01
2017-09-25T15:41:06.548Z,82.47
2017-09-25T15:43:41.348Z,82.16
2017-09-25T15:46:16.009Z,81.64
2017-09-25T15:48:50.672Z,81.64
2017-09-25T15:51:25.313Z,82.24
2017-09-25T15:54:00.203Z,82.43
2017-09-25T15:56:35.037Z,83.00
2017-09-25T15:59:10.070Z,82.22
2017-09-25T16:01:45.228Z,82.28
2017-09-25T16:04:20.237Z,82.33
2017-09-25T16:06:54.874Z,82.61
2017-09-25T16:09:29.647Z,82.89
2017-09-25T16:12:04.532Z,82.42
2017-09-25T16:14:39.244Z,82.62
2017-09-25T16:17:14.187Z,82.89
2017-09-25T16:19:48.959Z,83.31
2017-09-25T16:22:23.617Z,83.94
2017-09-25T16:24:58.550Z,84.41
2017-09-25T16:27:33.971Z,84.48
2017-09-25T16:30:08.727Z,85.01
2017-09-25T16:32:43.570Z,85.17
2017-09-25T16:35:18.287Z,85.46
2017-09-25T16:37:52.998Z,85.27
2017-09-25T16:40:27.647Z,85.15
2017-09-25T16:43:02.731Z,85.11
2017-09-25T16:45:37.947Z,85.36
2017-09-25T16:48:12.700Z,85.76
2017-09-25T16:50:48.776Z,86.05
2017-09-25T16:53:23.947Z,86.16
2017-09-25T16:55:58.702Z,86.47
2017-09-25T16:58:33.556Z,86.69
2017-09-25T17:01:09.315Z,86.71
2017-09-25T17:03:43.768Z,86.94
2017-09-25T17:06:21.192Z,87.21
2017-09-25T17:08:56.076Z,87.10
2017-09-25T17:11:30.652Z,87.34
2017-09-25T17:14:05.278Z,88.43
2017-09-25T17:19:37.520Z,87.49
2017-09-25T17:22:12.250Z,87.56
2017-09-25T17:24:46.866Z,87.52
2017-09-25T17:27:21.600Z,87.87
2017-09-25T17:29:56.596Z,87.65
2017-09-25T17:32:31.331Z,87.94
2017-09-25T17:35:06.044Z,87.91
2017-09-25T17:37:40.843Z,88.40
2017-09-25T17:40:15.725Z,88.57
2017-09-25T17:42:50.681Z,88.69
2017-09-25T17:45:24.986Z,87.12
2017-09-25T17:47:59.888Z,85.39
2017-09-25T17:50:34.616Z,83.40
2017-09-25T17:53:09.368Z,83.75
2017-09-25T17:55:44.111Z,83.44
2017-09-25T17:58:18.931Z,83.02
2017-09-25T18:03:51.281Z,83.52
2017-09-25T18:06:26.143Z,82.36
2017-09-25T18:09:01.983Z,82.20
2017-09-25T18:11:36.521Z,82.84
2017-09-25T18:14:11.322Z,83.80
2017-09-25T18:16:46.075Z,84.77
2017-09-25T18:19:21.167Z,85.17
2017-09-25T18:21:57.158Z,85.35
2017-09-25T18:24:32.308Z,85.68
2017-09-25T18:27:06.957Z,86.15
2017-09-25T18:29:42.599Z,86.42
2017-09-25T18:32:17.181Z,87.78
2017-09-25T18:34:52.774Z,89.37
2017-09-25T18:37:27.493Z,87.12
2017-09-25T18:40:02.696Z,85.32
2017-09-25T18:42:37.414Z,83.76
2017-09-25T18:45:12.055Z,82.23
2017-09-25T18:47:47.640Z,81.39
2017-09-25T18:50:22.334Z,81.38
2017-09-25T18:52:56.683Z,80.61
2017-09-25T18:55:31.679Z,80.25
2017-09-25T18:58:06.501Z,81.01
2017-09-25T19:00:41.505Z,81.61
2017-09-25T19:03:17.623Z,82.05
2017-09-25T19:05:52.505Z,81.79
2017-09-25T19:08:27.067Z,80.95
2017-09-25T19:11:02.068Z,80.57
2017-09-25T19:13:36.586Z,80.63
2017-09-25T19:16:11.218Z,81.15
2017-09-25T19:18:46.034Z,81.64
2017-09-25T19:21:21.054Z,82.13
2017-09-25T19:23:55.598Z,82.42
2017-09-25T19:26:30.357Z,82.93
2017-09-25T19:29:05.177Z,83.23
2017-09-25T19:31:40.249Z,83.36
2017-09-25T19:34:15.241Z,83.44
2017-09-25T19:36:50.865Z,83.63
2017-09-25T19:39:25.387Z,83.66
2017-09-25T19:42:00.254Z,83.76
2017-09-25T19:44:34.830Z,84.04
2017-09-25T19:47:09.214Z,84.39
2017-09-25T19:49:49.500Z,84.50
2017-09-25T19:52:24.545Z,84.69
2017-09-25T19:54:59.765Z,84.77
2017-09-25T19:57:44.907Z,84.90
2017-09-25T20:00:20.152Z,85.29
2017-09-25T20:02:54.754Z,85.35
2017-09-25T20:05:29.684Z,86.14
2017-09-25T20:08:04.537Z,86.55
2017-09-25T20:10:39.573Z,84.46
2017-09-25T20:13:14.049Z,82.45
2017-09-25T20:15:54.369Z,80.59
2017-09-25T20:18:28.746Z,80.28
2017-09-25T20:21:03.612Z,80.97
2017-09-25T20:23:38.724Z,81.47
2017-09-25T20:26:13.577Z,82.36
2017-09-25T20:28:48.509Z,82.85
2017-09-25T20:31:23.109Z,83.11
2017-09-25T20:33:58.189Z,83.40
2017-09-25T20:36:32.469Z,83.65
2017-09-25T20:39:07.622Z,83.76
2017-09-25T20:41:44.775Z,84.00
2017-09-25T20:44:19.463Z,84.21
2017-09-25T20:46:54.588Z,84.38
2017-09-25T20:49:29.687Z,84.41
2017-09-25T20:52:04.589Z,84.44
2017-09-25T20:54:39.578Z,84.41
2017-09-25T20:57:14.459Z,85.56
2017-09-25T20:59:49.233Z,84.10
2017-09-25T21:02:23.948Z,81.70
2017-09-25T21:04:58.917Z,79.72
2017-09-25T21:07:33.622Z,80.83
2017-09-25T21:10:08.658Z,81.70
2017-09-25T21:12:43.359Z,82.61
2017-09-25T21:15:17.736Z,83.14
2017-09-25T21:17:53.020Z,83.51
2017-09-25T21:20:27.849Z,83.94
2017-09-25T21:23:02.421Z,84.33
2017-09-25T21:25:37.039Z,84.70
2017-09-25T21:28:11.922Z,85.16
2017-09-25T21:30:46.932Z,86.68
2017-09-25T21:33:21.515Z,87.64
2017-09-25T21:35:56.848Z,84.61
2017-09-25T21:38:31.563Z,83.44
2017-09-25T21:41:07.010Z,83.45
2017-09-25T21:43:41.971Z,83.41
2017-09-25T21:46:16.785Z,83.63
2017-09-25T21:48:51.788Z,84.53
2017-09-25T21:51:26.617Z,84.73
2017-09-25T21:54:01.540Z,85.61
2017-09-25T21:56:36.379Z,85.96
2017-09-25T21:59:11.152Z,86.05
2017-09-25T22:01:46.013Z,86.12
2017-09-25T22:04:20.889Z,86.37
2017-09-25T22:06:56.125Z,86.66
2017-09-25T22:09:30.479Z,87.52
2017-09-25T22:12:05.213Z,87.72
2017-09-25T22:14:39.853Z,87.78
2017-09-25T22:17:14.572Z,88.06
2017-09-25T22:19:49.370Z,88.27
2017-09-25T22:22:24.109Z,88.60
2017-09-25T22:24:58.936Z,88.96
2017-09-25T22:27:33.669Z,89.14
2017-09-25T22:30:08.263Z,89.15
2017-09-25T22:32:43.192Z,89.23
2017-09-25T22:35:17.693Z,89.52
2017-09-25T22:37:52.383Z,89.77
2017-09-25T22:40:27.657Z,90.78
2017-09-25T22:43:02.733Z,91.74
2017-09-25T22:45:37.944Z,91.41
2017-09-25T22:48:13.149Z,91.60
2017-09-25T22:50:47.586Z,91.58
2017-09-25T22:53:22.459Z,91.69
2017-09-25T22:55:57.517Z,92.42
2017-09-25T22:58:33.393Z,92.72
2017-09-25T23:01:08.113Z,93.33
2017-09-25T23:17:07.148Z,95.51
2017-09-25T23:19:42.045Z,95.24
2017-09-25T23:22:16.687Z,95.52
2017-09-25T23:24:51.245Z,95.52
2017-09-25T23:27:25.939Z,95.66
2017-09-25T23:30:13.097Z,95.95
2017-09-25T23:32:48.280Z,96.08
2017-09-25T23:35:23.221Z,96.23
2017-09-25T23:37:57.915Z,95.99
2017-09-25T23:40:32.868Z,96.06
2017-09-25T23:43:07.569Z,95.77
2017-09-25T23:45:42.320Z,95.28
2017-09-25T23:48:17.951Z,94.83
2017-09-25T23:50:52.617Z,94.49
2017-09-25T23:53:28.274Z,94.23
2017-09-25T23:56:03.188Z,93.93
2017-09-25T23:58:37.825Z,93.84
